KEWR

Newark Liberty International Airport

Newark, New Jersey, USA
KEWR 211721Z 2118/2224 01010KT P6SM SCT060 FM212100 03008KT P6SM FEW060 FEW250 FM220500 04006KT P6SM SCT050 FM220900 04007KT P6SM SCT020 SCT050 FM221400 08011KT P6SM SCT030 BKN150 FM221800 11013G19KT P6SM SCT030 BKN100
Issued Valid From Valid To
Jun-21 @ 17:21 UTC
(45 minutes ago)
Jun-21 @ 18:00 UTC
(6 minutes ago)
Jun-23 @ 00:00 UTC
(-1 days ago)
Jun-21 @ 18:00 to Jun-21 @ 21:00
KEWR 211721Z 2118/2224 01010KT P6SM SCT060
Wind Visibility Clouds
10° at 10 knots Greater than 6 miles
  • Scattered at 6,000' AGL
From Jun-21 @ 21:00 to Jun-22 @ 05:00
FM212100 03008KT P6SM FEW060 FEW250
Wind Visibility Clouds
30° at 8 knots Greater than 6 miles
  • Few at 6,000' AGL
  • Few at 25,000' AGL
From Jun-22 @ 05:00 to Jun-22 @ 09:00
FM220500 04006KT P6SM SCT050
Wind Visibility Clouds
40° at 6 knots Greater than 6 miles
  • Scattered at 5,000' AGL
From Jun-22 @ 09:00 to Jun-22 @ 14:00
FM220900 04007KT P6SM SCT020 SCT050
Wind Visibility Clouds
40° at 7 knots Greater than 6 miles
  • Scattered at 2,000' AGL
  • Scattered at 5,000' AGL
From Jun-22 @ 14:00 to Jun-22 @ 18:00
FM221400 08011KT P6SM SCT030 BKN150
Wind Visibility Clouds
80° at 11 knots Greater than 6 miles
  • Scattered at 3,000' AGL
  • Broken at 15,000' AGL
From Jun-22 @ 18:00 to Jun-23 @ 00:00
FM221800 11013G19KT P6SM SCT030 BKN100
Wind Visibility Clouds
110° at 13 knots
 Gusting to 19 knots
Greater than 6 miles
  • Scattered at 3,000' AGL
  • Broken at 10,000' AGL
KEWR 211721Z 2118/2224 01010KT P6SM SCT060 FM212100 03008KT P6SM FEW060 FEW250 FM220500 04006KT P6SM SCT050 FM220900 04007KT P6SM SCT020 SCT050 FM221400 08011KT P6SM SCT030 BKN150 FM221800 11013G19KT P6SM SCT030 BKN100
Issued Jun-21 @ 17:21 UTC
(45 minutes ago)
Valid From Jun-21 @ 18:00 UTC
(6 minutes ago)
Valid To Jun-23 @ 00:00 UTC
(-1 days ago)
Jun-21 @ 18:00 - Jun-21 @ 21:00
Wind Visibility
10° at 10 knots Greater than 6 miles
Clouds
  • Scattered at 6,000' AGL
From Jun-21 @ 21:00 - Jun-22 @ 05:00
Wind Visibility
30° at 8 knots Greater than 6 miles
Clouds
  • Few at 6,000' AGL
  • Few at 25,000' AGL
From Jun-22 @ 05:00 - Jun-22 @ 09:00
Wind Visibility
40° at 6 knots Greater than 6 miles
Clouds
  • Scattered at 5,000' AGL
From Jun-22 @ 09:00 - Jun-22 @ 14:00
Wind Visibility
40° at 7 knots Greater than 6 miles
Clouds
  • Scattered at 2,000' AGL
  • Scattered at 5,000' AGL
From Jun-22 @ 14:00 - Jun-22 @ 18:00
Wind Visibility
80° at 11 knots Greater than 6 miles
Clouds
  • Scattered at 3,000' AGL
  • Broken at 15,000' AGL
From Jun-22 @ 18:00 - Jun-23 @ 00:00
Wind Visibility
110° at 13 knots
 Gusting to 19 knots
Greater than 6 miles
Clouds
  • Scattered at 3,000' AGL
  • Broken at 10,000' AGL